Terminal Aerodrome Forecast
Issued by NWS

Home | Current Version | Previous Version | Text Only | Print | Product List | Glossary On
Versions: 1 2 3 4 5 6 7 8 9 10 11 12 13 14 15 16 17 18 19 20 21 22 23 24 25 26
000
FTUS44 KOUN 300520
TAFLAW
TAF
KLAW 300520Z 3006/3106 13006KT P6SM -SHRA BKN090
     FM301000 12004KT 5SM -RA OVC040
      TEMPO 3010/3014 3SM TSRA BR OVC020CB
     FM301600 14012KT 5SM -RA OVC030
      TEMPO 3016/3020 3SM -TSRA BKN020CB
     FM310100 08012KT 5SM -RA BKN015=

USA.gov is the U.S. government's official web portal to all federal, state and local government web resources and services.